Time,TemperatureF,DewpointF,PressureIn,WindDirection,WindDirectionDegrees,WindSpeedMPH,WindSpeedGustMPH,Humidity,HourlyPrecipIn,Conditions,Clouds,dailyrainin,SoftwareType,DateUTC
2013-02-11 00:08:00,62.8,63.0,29.98,NW,306,1.0,7.0,99,0.00,,,0.00,weatherlink.com 1.10,2013-02-11 06:08:00,
2013-02-11 00:23:00,62.8,63.0,29.97,NE,56,2.0,2.0,99,0.00,,,0.00,weatherlink.com 1.10,2013-02-11 06:23:00,
2013-02-11 00:38:00,62.9,63.0,29.97,NE,46,1.0,3.0,99,0.00,,,0.00,weatherlink.com 1.10,2013-02-11 06:38:00,
2013-02-11 00:53:00,62.9,63.0,29.98,NW,314,0.0,3.0,99,0.00,,,0.00,weatherlink.com 1.10,2013-02-11 06:53:00,
2013-02-11 01:08:00,62.8,63.0,29.97,NW,314,0.0,1.0,99,0.00,,,0.00,weatherlink.com 1.10,2013-02-11 07:08:00,
2013-02-11 01:23:00,62.9,63.0,29.97,WNW,296,0.0,3.0,99,0.00,,,0.00,weatherlink.com 1.10,2013-02-11 07:23:00,
2013-02-11 01:38:00,63.0,63.0,29.96,WNW,292,2.0,2.0,99,0.00,,,0.00,weatherlink.com 1.10,2013-02-11 07:38:00,
2013-02-11 01:53:00,63.0,63.0,29.96,WNW,292,0.0,1.0,99,0.00,,,0.00,weatherlink.com 1.10,2013-02-11 07:53:00,
2013-02-11 02:08:00,63.1,63.0,29.97,WNW,292,0.0,1.0,99,0.00,,,0.00,weatherlink.com 1.10,2013-02-11 08:08:00,
2013-02-11 02:23:00,63.2,63.0,29.95,WNW,292,0.0,1.0,99,0.00,,,0.00,weatherlink.com 1.10,2013-02-11 08:23:00,
2013-02-11 02:38:00,63.1,63.0,29.95,WNW,292,0.0,2.0,99,0.00,,,0.00,weatherlink.com 1.10,2013-02-11 08:38:00,
2013-02-11 02:53:00,63.0,63.0,29.96,WNW,292,0.0,1.0,99,0.00,,,0.00,weatherlink.com 1.10,2013-02-11 08:53:00,
2013-02-11 03:08:00,63.0,63.0,29.95,WNW,292,0.0,1.0,99,0.00,,,0.00,weatherlink.com 1.10,2013-02-11 09:08:00,
2013-02-11 03:23:00,63.1,63.0,29.95,WNW,292,0.0,1.0,99,0.00,,,0.00,weatherlink.com 1.10,2013-02-11 09:23:00,
2013-02-11 03:38:00,63.1,63.0,29.94,WNW,292,0.0,3.0,100,0.00,,,0.00,weatherlink.com 1.10,2013-02-11 09:38:00,
2013-02-11 03:53:00,63.1,63.0,29.94,WNW,292,0.0,1.0,99,0.00,,,0.00,weatherlink.com 1.10,2013-02-11 09:53:00,
2013-02-11 04:08:00,63.3,63.0,29.96,WNW,292,0.0,1.0,100,0.00,,,0.00,weatherlink.com 1.10,2013-02-11 10:08:00,
2013-02-11 04:23:00,63.6,64.0,29.96,WNW,292,0.0,2.0,100,0.00,,,0.00,weatherlink.com 1.10,2013-02-11 10:23:00,
2013-02-11 04:38:00,64.3,64.0,29.98,NW,313,4.0,8.0,100,0.00,,,0.00,weatherlink.com 1.10,2013-02-11 10:38:00,
2013-02-11 04:53:00,61.1,59.0,30.01,North,350,8.0,21.0,94,0.00,,,0.00,weatherlink.com 1.10,2013-02-11 10:53:00,
2013-02-11 05:08:00,59.0,58.0,30.02,NNE,23,12.0,17.0,95,0.00,,,0.00,weatherlink.com 1.10,2013-02-11 11:08:00,
2013-02-11 05:23:00,57.9,57.0,30.02,NNW,327,3.0,15.0,95,0.01,,,0.01,weatherlink.com 1.10,2013-02-11 11:23:00,
2013-02-11 05:38:00,57.5,56.0,30.03,NNE,15,9.0,15.0,95,0.02,,,0.02,weatherlink.com 1.10,2013-02-11 11:38:00,
2013-02-11 05:53:00,57.1,56.0,30.04,NNW,348,4.0,14.0,95,0.05,,,0.05,weatherlink.com 1.10,2013-02-11 11:53:00,
2013-02-11 06:08:00,56.8,55.0,30.05,NE,36,4.0,8.0,94,0.05,,,0.05,weatherlink.com 1.10,2013-02-11 12:08:00,
2013-02-11 06:23:00,56.8,55.0,30.07,North,360,1.0,6.0,95,0.04,,,0.05,weatherlink.com 1.10,2013-02-11 12:23:00,
2013-02-11 06:38:00,56.7,56.0,30.07,NNE,26,3.0,5.0,96,0.03,,,0.05,weatherlink.com 1.10,2013-02-11 12:38:00,
2013-02-11 06:54:00,56.6,56.0,30.07,NNE,30,3.0,8.0,97,0.00,,,0.05,weatherlink.com 1.10,2013-02-11 12:54:00,
2013-02-11 07:09:00,56.7,56.0,30.08,NE,41,3.0,4.0,97,0.00,,,0.05,weatherlink.com 1.10,2013-02-11 13:09:00,
2013-02-11 07:23:00,57.0,56.0,30.08,NNE,13,6.0,7.0,97,0.00,,,0.05,weatherlink.com 1.10,2013-02-11 13:23:00,
2013-02-11 07:38:00,57.0,56.0,30.07,NNE,21,6.0,11.0,95,0.00,,,0.05,weatherlink.com 1.10,2013-02-11 13:38:00,
2013-02-11 07:53:00,56.9,56.0,30.08,NE,53,2.0,11.0,95,0.01,,,0.06,weatherlink.com 1.10,2013-02-11 13:53:00,
2013-02-11 08:09:00,56.8,55.0,30.09,ENE,59,5.0,8.0,94,0.01,,,0.06,weatherlink.com 1.10,2013-02-11 14:09:00,
2013-02-11 08:23:00,56.7,55.0,30.13,NNW,337,4.0,13.0,93,0.01,,,0.06,weatherlink.com 1.10,2013-02-11 14:23:00,
2013-02-11 08:39:00,56.5,54.0,30.14,NW,322,4.0,9.0,92,0.01,,,0.06,weatherlink.com 1.10,2013-02-11 14:39:00,
2013-02-11 08:53:00,55.8,54.0,30.11,NW,315,3.0,9.0,93,0.00,,,0.06,weatherlink.com 1.10,2013-02-11 14:53:00,
2013-02-11 09:09:00,55.5,54.0,30.11,ENE,65,8.0,15.0,94,0.00,,,0.06,weatherlink.com 1.10,2013-02-11 15:09:00,
2013-02-11 09:24:00,54.9,54.0,30.11,NE,36,6.0,16.0,95,0.00,,,0.06,weatherlink.com 1.10,2013-02-11 15:24:00,
2013-02-11 09:39:00,54.4,53.0,30.11,NNE,31,3.0,7.0,95,0.00,,,0.06,weatherlink.com 1.10,2013-02-11 15:39:00,
2013-02-11 09:54:00,54.3,53.0,30.10,ENE,73,9.0,12.0,95,0.00,,,0.06,weatherlink.com 1.10,2013-02-11 15:54:00,
2013-02-11 10:09:00,54.5,53.0,30.12,NNE,30,6.0,7.0,96,0.00,,,0.06,weatherlink.com 1.10,2013-02-11 16:09:00,
2013-02-11 10:24:00,54.5,53.0,30.12,North,355,1.0,6.0,96,0.01,,,0.07,weatherlink.com 1.10,2013-02-11 16:24:00,
2013-02-11 10:39:00,54.5,53.0,30.13,ENE,59,3.0,6.0,96,0.03,,,0.09,weatherlink.com 1.10,2013-02-11 16:39:00,
2013-02-11 10:54:00,54.3,54.0,30.10,NE,55,7.0,8.0,97,0.07,,,0.13,weatherlink.com 1.10,2013-02-11 16:54:00,
2013-02-11 11:09:00,54.2,53.0,30.12,NW,316,5.0,10.0,97,0.09,,,0.15,weatherlink.com 1.10,2013-02-11 17:09:00,
2013-02-11 11:15:00,54.2,53.6,30.10,NE,45,4.0,-999.0,98,0.26,,,0.93,Wunderground v.1.15,2013-02-11 17:15:00,
2013-02-11 11:20:00,54.2,53.6,30.10,NE,45,4.0,-999.0,98,0.26,,,0.93,Wunderground v.1.15,2013-02-11 17:20:00,
2013-02-11 11:24:00,54.2,54.0,30.14,East,86,1.0,9.0,98,0.25,,,0.32,weatherlink.com 1.10,2013-02-11 17:24:00,
2013-02-11 11:25:00,54.2,53.6,30.10,NE,45,4.0,-999.0,98,0.26,,,0.93,Wunderground v.1.15,2013-02-11 17:25:00,
2013-02-11 11:30:00,54.2,53.6,30.10,NE,45,4.0,-999.0,98,0.26,,,0.93,Wunderground v.1.15,2013-02-11 17:30:00,
2013-02-11 11:35:00,54.2,53.6,30.10,NE,45,4.0,-999.0,98,0.26,,,0.93,Wunderground v.1.15,2013-02-11 17:35:00,
2013-02-11 11:36:00,54.2,53.6,30.10,NE,45,4.0,-999.0,98,0.26,,,0.93,Wunderground v.1.15,2013-02-11 17:36:00,
2013-02-11 11:39:00,54.3,54.0,30.10,East,98,1.0,14.0,98,0.25,,,0.34,weatherlink.com 1.10,2013-02-11 17:39:00,
2013-02-11 11:40:00,54.2,53.6,30.10,NE,45,4.0,-999.0,98,0.26,,,0.93,Wunderground v.1.15,2013-02-11 17:40:00,
2013-02-11 11:41:00,54.2,53.6,30.10,NE,45,4.0,-999.0,98,0.26,,,0.93,Wunderground v.1.15,2013-02-11 17:41:00,
2013-02-11 11:45:00,54.0,53.2,30.08,NE,45,5.0,-999.0,97,0.21,,,0.93,Wunderground v.1.15,2013-02-11 17:45:00,
2013-02-11 11:46:00,54.0,53.2,30.08,NE,45,5.0,-999.0,97,0.21,,,0.93,Wunderground v.1.15,2013-02-11 17:46:00,
2013-02-11 11:50:00,54.0,53.2,30.08,NE,45,5.0,-999.0,97,0.21,,,0.93,Wunderground v.1.15,2013-02-11 17:50:00,
2013-02-11 11:51:00,54.0,53.2,30.08,NE,45,5.0,-999.0,97,0.21,,,0.93,Wunderground v.1.15,2013-02-11 17:51:00,
2013-02-11 11:54:00,54.1,53.0,30.08,NE,48,5.0,11.0,97,0.20,,,0.34,weatherlink.com 1.10,2013-02-11 17:54:00,
2013-02-11 11:55:00,54.0,53.2,30.08,NE,45,5.0,-999.0,97,0.21,,,0.93,Wunderground v.1.15,2013-02-11 17:55:00,
2013-02-11 11:56:00,54.0,53.2,30.08,NE,45,5.0,-999.0,97,0.21,,,0.93,Wunderground v.1.15,2013-02-11 17:56:00,
2013-02-11 12:00:00,54.0,53.2,30.08,NE,45,5.0,-999.0,97,0.21,,,0.93,Wunderground v.1.15,2013-02-11 18:00:00,
2013-02-11 12:01:00,54.0,53.2,30.08,NE,45,5.0,-999.0,97,0.21,,,0.93,Wunderground v.1.15,2013-02-11 18:01:00,
2013-02-11 12:05:00,54.0,53.2,30.08,NE,45,5.0,-999.0,97,0.21,,,0.93,Wunderground v.1.15,2013-02-11 18:05:00,
2013-02-11 12:06:00,54.0,53.2,30.08,NE,45,5.0,-999.0,97,0.21,,,0.93,Wunderground v.1.15,2013-02-11 18:06:00,
2013-02-11 12:09:00,54.0,53.0,30.07,NE,44,6.0,11.0,97,0.21,,,0.36,weatherlink.com 1.10,2013-02-11 18:09:00,
2013-02-11 12:10:00,54.0,53.2,30.08,NE,45,5.0,-999.0,97,0.21,,,0.93,Wunderground v.1.15,2013-02-11 18:10:00,
2013-02-11 12:11:00,54.0,53.2,30.08,NE,45,5.0,-999.0,97,0.21,,,0.93,Wunderground v.1.15,2013-02-11 18:11:00,
2013-02-11 12:15:00,54.0,53.4,30.08,NE,45,4.0,-999.0,98,0.04,,,0.93,Wunderground v.1.15,2013-02-11 18:15:00,
2013-02-11 12:16:00,54.0,53.4,30.08,NE,45,4.0,-999.0,98,0.04,,,0.93,Wunderground v.1.15,2013-02-11 18:16:00,
2013-02-11 12:20:00,54.0,53.4,30.08,NE,45,4.0,-999.0,98,0.04,,,0.93,Wunderground v.1.15,2013-02-11 18:20:00,
2013-02-11 12:21:00,54.0,53.4,30.08,NE,45,4.0,-999.0,98,0.04,,,0.93,Wunderground v.1.15,2013-02-11 18:21:00,
2013-02-11 12:24:00,53.9,53.0,30.09,North,5,8.0,12.0,97,0.04,,,0.36,weatherlink.com 1.10,2013-02-11 18:24:00,
2013-02-11 12:25:00,54.0,53.4,30.08,NE,45,4.0,-999.0,98,0.04,,,0.93,Wunderground v.1.15,2013-02-11 18:25:00,
2013-02-11 12:26:00,54.0,53.4,30.08,NE,45,4.0,-999.0,98,0.04,,,0.93,Wunderground v.1.15,2013-02-11 18:26:00,
2013-02-11 12:30:00,54.0,53.4,30.08,NE,45,4.0,-999.0,98,0.04,,,0.93,Wunderground v.1.15,2013-02-11 18:30:00,
2013-02-11 12:31:00,54.0,53.4,30.08,NE,45,4.0,-999.0,98,0.04,,,0.93,Wunderground v.1.15,2013-02-11 18:31:00,
2013-02-11 12:35:00,54.0,53.4,30.08,NE,45,4.0,-999.0,98,0.04,,,0.93,Wunderground v.1.15,2013-02-11 18:35:00,
2013-02-11 12:36:00,54.0,53.4,30.08,NE,45,4.0,-999.0,98,0.04,,,0.93,Wunderground v.1.15,2013-02-11 18:36:00,
2013-02-11 12:39:00,54.1,54.0,30.06,ENE,69,1.0,8.0,98,0.04,,,0.38,weatherlink.com 1.10,2013-02-11 18:39:00,
2013-02-11 12:40:00,54.0,53.4,30.08,NE,45,4.0,-999.0,98,0.04,,,0.93,Wunderground v.1.15,2013-02-11 18:40:00,
2013-02-11 12:41:00,54.0,53.4,30.08,NE,45,4.0,-999.0,98,0.04,,,0.93,Wunderground v.1.15,2013-02-11 18:41:00,
2013-02-11 12:45:00,54.6,54.0,30.05,East,90,2.0,-999.0,98,0.04,,,0.93,Wunderground v.1.15,2013-02-11 18:45:00,
2013-02-11 12:46:00,54.6,54.0,30.05,East,90,2.0,-999.0,98,0.04,,,0.93,Wunderground v.1.15,2013-02-11 18:46:00,
2013-02-11 12:50:00,54.6,54.0,30.05,East,90,2.0,-999.0,98,0.04,,,0.93,Wunderground v.1.15,2013-02-11 18:50:00,
2013-02-11 12:51:00,54.6,54.0,30.05,East,90,2.0,-999.0,98,0.04,,,0.93,Wunderground v.1.15,2013-02-11 18:51:00,
2013-02-11 12:54:00,54.4,54.0,30.06,ENE,78,2.0,8.0,98,0.05,,,0.39,weatherlink.com 1.10,2013-02-11 18:54:00,
2013-02-11 12:55:00,54.6,54.0,30.05,East,90,2.0,-999.0,98,0.04,,,0.93,Wunderground v.1.15,2013-02-11 18:55:00,
2013-02-11 12:56:00,54.6,54.0,30.05,East,90,2.0,-999.0,98,0.04,,,0.93,Wunderground v.1.15,2013-02-11 18:56:00,
2013-02-11 13:00:00,54.6,54.0,30.05,East,90,2.0,-999.0,98,0.04,,,0.93,Wunderground v.1.15,2013-02-11 19:00:00,
2013-02-11 13:01:00,54.6,54.0,30.05,East,90,2.0,-999.0,98,0.04,,,0.93,Wunderground v.1.15,2013-02-11 19:01:00,
2013-02-11 13:05:00,54.6,54.0,30.05,East,90,2.0,-999.0,98,0.04,,,0.93,Wunderground v.1.15,2013-02-11 19:05:00,
2013-02-11 13:06:00,54.6,54.0,30.05,East,90,2.0,-999.0,98,0.04,,,0.93,Wunderground v.1.15,2013-02-11 19:06:00,
2013-02-11 13:09:00,54.8,54.0,30.05,East,101,2.0,8.0,98,0.03,,,0.39,weatherlink.com 1.10,2013-02-11 19:09:00,
2013-02-11 13:10:00,54.6,54.0,30.05,East,90,2.0,-999.0,98,0.04,,,0.93,Wunderground v.1.15,2013-02-11 19:10:00,
2013-02-11 13:11:00,54.6,54.0,30.05,East,90,2.0,-999.0,98,0.04,,,0.93,Wunderground v.1.15,2013-02-11 19:11:00,
2013-02-11 13:15:00,55.3,54.7,30.03,East,90,3.0,-999.0,98,0.02,,,0.93,Wunderground v.1.15,2013-02-11 19:15:00,
2013-02-11 13:16:00,55.3,54.7,30.03,East,90,3.0,-999.0,98,0.02,,,0.93,Wunderground v.1.15,2013-02-11 19:16:00,
2013-02-11 13:20:00,55.3,54.7,30.03,East,90,3.0,-999.0,98,0.02,,,0.93,Wunderground v.1.15,2013-02-11 19:20:00,
2013-02-11 13:21:00,55.3,54.7,30.03,East,90,3.0,-999.0,98,0.02,,,0.93,Wunderground v.1.15,2013-02-11 19:21:00,
2013-02-11 13:24:00,55.1,55.0,30.03,SE,136,4.0,6.0,98,0.03,,,0.39,weatherlink.com 1.10,2013-02-11 19:24:00,
2013-02-11 13:25:00,55.3,54.7,30.03,East,90,3.0,-999.0,98,0.02,,,0.93,Wunderground v.1.15,2013-02-11 19:25:00,
2013-02-11 13:26:00,55.3,54.7,30.03,East,90,3.0,-999.0,98,0.02,,,0.93,Wunderground v.1.15,2013-02-11 19:26:00,
2013-02-11 13:30:00,55.3,54.7,30.03,East,90,3.0,-999.0,98,0.02,,,0.93,Wunderground v.1.15,2013-02-11 19:30:00,
2013-02-11 13:31:00,55.3,54.7,30.03,East,90,3.0,-999.0,98,0.02,,,0.93,Wunderground v.1.15,2013-02-11 19:31:00,
2013-02-11 13:35:00,55.3,54.7,30.03,East,90,3.0,-999.0,98,0.02,,,0.93,Wunderground v.1.15,2013-02-11 19:35:00,
2013-02-11 13:36:00,55.3,54.7,30.03,East,90,3.0,-999.0,98,0.02,,,0.93,Wunderground v.1.15,2013-02-11 19:36:00,
2013-02-11 13:39:00,55.5,55.0,30.02,NE,46,2.0,8.0,98,0.01,,,0.39,weatherlink.com 1.10,2013-02-11 19:39:00,
2013-02-11 13:40:00,55.3,54.7,30.03,East,90,3.0,-999.0,98,0.02,,,0.93,Wunderground v.1.15,2013-02-11 19:40:00,
2013-02-11 13:41:00,55.3,54.7,30.03,East,90,3.0,-999.0,98,0.02,,,0.93,Wunderground v.1.15,2013-02-11 19:41:00,
2013-02-11 13:45:00,55.6,55.0,30.02,East,90,3.0,-999.0,98,0.00,,,0.93,Wunderground v.1.15,2013-02-11 19:45:00,
2013-02-11 13:46:00,55.6,55.0,30.02,East,90,3.0,-999.0,98,0.00,,,0.93,Wunderground v.1.15,2013-02-11 19:46:00,
2013-02-11 13:50:00,55.6,55.0,30.02,East,90,3.0,-999.0,98,0.00,,,0.93,Wunderground v.1.15,2013-02-11 19:50:00,
2013-02-11 13:51:00,55.6,55.0,30.02,East,90,3.0,-999.0,98,0.00,,,0.93,Wunderground v.1.15,2013-02-11 19:51:00,
2013-02-11 13:54:00,55.5,55.0,30.03,East,88,1.0,11.0,98,0.00,,,0.39,weatherlink.com 1.10,2013-02-11 19:54:00,
2013-02-11 13:55:00,55.6,55.0,30.02,East,90,3.0,-999.0,98,0.00,,,0.93,Wunderground v.1.15,2013-02-11 19:55:00,
2013-02-11 13:56:00,55.6,55.0,30.02,East,90,3.0,-999.0,98,0.00,,,0.93,Wunderground v.1.15,2013-02-11 19:56:00,
2013-02-11 14:00:00,55.6,55.0,30.02,East,90,3.0,-999.0,98,0.00,,,0.93,Wunderground v.1.15,2013-02-11 20:00:00,
2013-02-11 14:01:00,55.6,55.0,30.02,East,90,3.0,-999.0,98,0.00,,,0.93,Wunderground v.1.15,2013-02-11 20:01:00,
2013-02-11 14:05:00,55.6,55.0,30.02,East,90,3.0,-999.0,98,0.00,,,0.93,Wunderground v.1.15,2013-02-11 20:05:00,
2013-02-11 14:06:00,55.6,55.0,30.02,East,90,3.0,-999.0,98,0.00,,,0.93,Wunderground v.1.15,2013-02-11 20:06:00,
2013-02-11 14:09:00,55.7,55.0,30.01,ENE,71,1.0,10.0,98,0.00,,,0.39,weatherlink.com 1.10,2013-02-11 20:09:00,
2013-02-11 14:10:00,55.6,55.0,30.02,East,90,3.0,-999.0,98,0.00,,,0.93,Wunderground v.1.15,2013-02-11 20:10:00,
2013-02-11 14:11:00,55.6,55.0,30.02,East,90,3.0,-999.0,98,0.00,,,0.93,Wunderground v.1.15,2013-02-11 20:11:00,
2013-02-11 14:15:00,55.7,54.9,30.05,ESE,113,3.0,-999.0,97,0.00,,,0.93,Wunderground v.1.15,2013-02-11 20:15:00,
2013-02-11 14:16:00,55.7,54.9,30.05,ESE,113,3.0,-999.0,97,0.00,,,0.93,Wunderground v.1.15,2013-02-11 20:16:00,
2013-02-11 14:20:00,55.7,54.9,30.05,ESE,113,3.0,-999.0,97,0.00,,,0.93,Wunderground v.1.15,2013-02-11 20:20:00,
2013-02-11 14:21:00,55.7,54.9,30.05,ESE,113,3.0,-999.0,97,0.00,,,0.93,Wunderground v.1.15,2013-02-11 20:21:00,
2013-02-11 14:24:00,55.8,55.0,30.03,NNE,15,2.0,8.0,97,0.00,,,0.39,weatherlink.com 1.10,2013-02-11 20:24:00,
2013-02-11 14:25:00,55.7,54.9,30.05,ESE,113,3.0,-999.0,97,0.00,,,0.93,Wunderground v.1.15,2013-02-11 20:25:00,
2013-02-11 14:26:00,55.7,54.9,30.05,ESE,113,3.0,-999.0,97,0.00,,,0.93,Wunderground v.1.15,2013-02-11 20:26:00,
2013-02-11 14:30:00,55.7,54.9,30.05,ESE,113,3.0,-999.0,97,0.00,,,0.93,Wunderground v.1.15,2013-02-11 20:30:00,
2013-02-11 14:31:00,55.7,54.9,30.05,ESE,113,3.0,-999.0,97,0.00,,,0.93,Wunderground v.1.15,2013-02-11 20:31:00,
2013-02-11 14:35:00,55.7,54.9,30.05,ESE,113,3.0,-999.0,97,0.00,,,0.93,Wunderground v.1.15,2013-02-11 20:35:00,
2013-02-11 14:36:00,55.7,54.9,30.05,ESE,113,3.0,-999.0,97,0.00,,,0.93,Wunderground v.1.15,2013-02-11 20:36:00,
2013-02-11 14:39:00,55.6,55.0,30.03,ENE,65,3.0,10.0,97,0.00,,,0.39,weatherlink.com 1.10,2013-02-11 20:39:00,
2013-02-11 14:40:00,55.7,54.9,30.05,ESE,113,3.0,-999.0,97,0.00,,,0.93,Wunderground v.1.15,2013-02-11 20:40:00,
2013-02-11 14:41:00,55.7,54.9,30.05,ESE,113,3.0,-999.0,97,0.00,,,0.93,Wunderground v.1.15,2013-02-11 20:41:00,
2013-02-11 14:45:00,55.4,54.8,30.02,North,0,4.0,-999.0,98,0.01,,,0.93,Wunderground v.1.15,2013-02-11 20:45:00,
2013-02-11 14:46:00,55.4,54.8,30.02,North,0,4.0,-999.0,98,0.01,,,0.93,Wunderground v.1.15,2013-02-11 20:46:00,
2013-02-11 14:50:00,55.4,54.8,30.02,North,0,4.0,-999.0,98,0.01,,,0.93,Wunderground v.1.15,2013-02-11 20:50:00,
2013-02-11 14:51:00,55.4,54.8,30.02,North,0,4.0,-999.0,98,0.01,,,0.93,Wunderground v.1.15,2013-02-11 20:51:00,
2013-02-11 14:54:00,55.5,55.0,30.04,NE,35,5.0,6.0,97,0.00,,,0.39,weatherlink.com 1.10,2013-02-11 20:54:00,
2013-02-11 14:55:00,55.4,54.8,30.02,North,0,4.0,-999.0,98,0.01,,,0.93,Wunderground v.1.15,2013-02-11 20:55:00,
2013-02-11 14:56:00,55.4,54.8,30.02,North,0,4.0,-999.0,98,0.01,,,0.93,Wunderground v.1.15,2013-02-11 20:56:00,
2013-02-11 15:00:00,55.4,54.8,30.02,North,0,4.0,-999.0,98,0.01,,,0.93,Wunderground v.1.15,2013-02-11 21:00:00,
2013-02-11 15:01:00,55.4,54.8,30.02,North,0,4.0,-999.0,98,0.01,,,0.93,Wunderground v.1.15,2013-02-11 21:01:00,
2013-02-11 15:05:00,55.4,54.8,30.02,North,0,4.0,-999.0,98,0.01,,,0.93,Wunderground v.1.15,2013-02-11 21:05:00,
2013-02-11 15:06:00,55.4,54.8,30.02,North,0,4.0,-999.0,98,0.01,,,0.93,Wunderground v.1.15,2013-02-11 21:06:00,
2013-02-11 15:09:00,55.5,55.0,30.05,WSW,252,3.0,8.0,98,0.03,,,0.42,weatherlink.com 1.10,2013-02-11 21:09:00,
2013-02-11 15:10:00,55.4,54.8,30.02,North,0,4.0,-999.0,98,0.01,,,0.93,Wunderground v.1.15,2013-02-11 21:10:00,
2013-02-11 15:11:00,55.4,54.8,30.02,North,0,4.0,-999.0,98,0.01,,,0.93,Wunderground v.1.15,2013-02-11 21:11:00,
2013-02-11 15:15:00,55.4,54.8,30.05,ENE,68,2.0,-999.0,98,0.09,,,0.93,Wunderground v.1.15,2013-02-11 21:15:00,
2013-02-11 15:16:00,55.4,54.8,30.05,ENE,68,2.0,-999.0,98,0.09,,,0.93,Wunderground v.1.15,2013-02-11 21:16:00,
2013-02-11 15:20:00,55.4,54.8,30.05,ENE,68,2.0,-999.0,98,0.09,,,0.93,Wunderground v.1.15,2013-02-11 21:20:00,
2013-02-11 15:21:00,55.4,54.8,30.05,ENE,68,2.0,-999.0,98,0.09,,,0.93,Wunderground v.1.15,2013-02-11 21:21:00,
2013-02-11 15:24:00,55.4,55.0,30.03,East,96,0.0,9.0,98,0.05,,,0.44,weatherlink.com 1.10,2013-02-11 21:24:00,
2013-02-11 15:25:00,55.4,54.8,30.05,ENE,68,2.0,-999.0,98,0.09,,,0.93,Wunderground v.1.15,2013-02-11 21:25:00,
2013-02-11 15:26:00,55.4,54.8,30.05,ENE,68,2.0,-999.0,98,0.09,,,0.93,Wunderground v.1.15,2013-02-11 21:26:00,
2013-02-11 15:30:00,55.4,54.8,30.05,ENE,68,2.0,-999.0,98,0.09,,,0.93,Wunderground v.1.15,2013-02-11 21:30:00,
2013-02-11 15:31:00,55.4,54.8,30.05,ENE,68,2.0,-999.0,98,0.09,,,0.93,Wunderground v.1.15,2013-02-11 21:31:00,
2013-02-11 15:35:00,55.4,54.8,30.05,ENE,68,2.0,-999.0,98,0.09,,,0.93,Wunderground v.1.15,2013-02-11 21:35:00,
2013-02-11 15:36:00,55.4,54.8,30.05,ENE,68,2.0,-999.0,98,0.09,,,0.93,Wunderground v.1.15,2013-02-11 21:36:00,
2013-02-11 15:39:00,55.3,55.0,30.04,NE,37,3.0,4.0,98,0.22,,,0.61,weatherlink.com 1.10,2013-02-11 21:39:00,
2013-02-11 15:40:00,55.4,54.8,30.05,ENE,68,2.0,-999.0,98,0.09,,,0.93,Wunderground v.1.15,2013-02-11 21:40:00,
2013-02-11 15:41:00,55.4,54.8,30.05,ENE,68,2.0,-999.0,98,0.09,,,0.93,Wunderground v.1.15,2013-02-11 21:41:00,
2013-02-11 15:45:00,55.3,55.0,30.05,NNE,23,1.0,-999.0,99,0.28,,,0.93,Wunderground v.1.15,2013-02-11 21:45:00,
2013-02-11 15:46:00,55.3,55.0,30.05,NNE,23,1.0,-999.0,99,0.28,,,0.93,Wunderground v.1.15,2013-02-11 21:46:00,
2013-02-11 15:50:00,55.3,55.0,30.05,NNE,23,1.0,-999.0,99,0.28,,,0.93,Wunderground v.1.15,2013-02-11 21:50:00,
2013-02-11 15:51:00,55.3,55.0,30.05,NNE,23,1.0,-999.0,99,0.28,,,0.93,Wunderground v.1.15,2013-02-11 21:51:00,
2013-02-11 15:54:00,55.3,55.0,30.05,ENE,72,1.0,3.0,98,0.27,,,0.66,weatherlink.com 1.10,2013-02-11 21:54:00,
2013-02-11 15:55:00,55.3,55.0,30.05,NNE,23,1.0,-999.0,99,0.28,,,0.93,Wunderground v.1.15,2013-02-11 21:55:00,
2013-02-11 15:56:00,55.3,55.0,30.05,NNE,23,1.0,-999.0,99,0.28,,,0.93,Wunderground v.1.15,2013-02-11 21:56:00,
2013-02-11 16:00:00,55.3,55.0,30.05,NNE,23,1.0,-999.0,99,0.28,,,0.93,Wunderground v.1.15,2013-02-11 22:00:00,
2013-02-11 16:01:00,55.3,55.0,30.05,NNE,23,1.0,-999.0,99,0.28,,,0.93,Wunderground v.1.15,2013-02-11 22:01:00,
2013-02-11 16:05:00,55.3,55.0,30.05,NNE,23,1.0,-999.0,99,0.28,,,0.93,Wunderground v.1.15,2013-02-11 22:05:00,
2013-02-11 16:06:00,55.3,55.0,30.05,NNE,23,1.0,-999.0,99,0.28,,,0.93,Wunderground v.1.15,2013-02-11 22:06:00,
2013-02-11 16:09:00,55.4,55.0,30.04,ENE,78,0.0,4.0,99,0.27,,,0.69,weatherlink.com 1.10,2013-02-11 22:09:00,
2013-02-11 16:10:00,55.3,55.0,30.05,NNE,23,1.0,-999.0,99,0.28,,,0.93,Wunderground v.1.15,2013-02-11 22:10:00,
2013-02-11 16:11:00,55.3,55.0,30.05,NNE,23,1.0,-999.0,99,0.28,,,0.93,Wunderground v.1.15,2013-02-11 22:11:00,
2013-02-11 16:15:00,55.5,55.2,30.04,ENE,68,2.0,-999.0,99,0.22,,,0.93,Wunderground v.1.15,2013-02-11 22:15:00,
2013-02-11 16:16:00,55.5,55.2,30.04,ENE,68,2.0,-999.0,99,0.22,,,0.93,Wunderground v.1.15,2013-02-11 22:16:00,
2013-02-11 16:20:00,55.5,55.2,30.04,ENE,68,2.0,-999.0,99,0.22,,,0.93,Wunderground v.1.15,2013-02-11 22:20:00,
2013-02-11 16:21:00,55.5,55.2,30.04,ENE,68,2.0,-999.0,99,0.22,,,0.93,Wunderground v.1.15,2013-02-11 22:21:00,
2013-02-11 16:24:00,55.5,55.0,30.03,NE,49,2.0,4.0,99,0.26,,,0.70,weatherlink.com 1.10,2013-02-11 22:24:00,
2013-02-11 16:25:00,55.5,55.2,30.04,ENE,68,2.0,-999.0,99,0.22,,,0.93,Wunderground v.1.15,2013-02-11 22:25:00,
2013-02-11 16:26:00,55.5,55.2,30.04,ENE,68,2.0,-999.0,99,0.22,,,0.93,Wunderground v.1.15,2013-02-11 22:26:00,
2013-02-11 16:30:00,55.5,55.2,30.04,ENE,68,2.0,-999.0,99,0.22,,,0.93,Wunderground v.1.15,2013-02-11 22:30:00,
2013-02-11 16:31:00,55.5,55.2,30.04,ENE,68,2.0,-999.0,99,0.22,,,0.93,Wunderground v.1.15,2013-02-11 22:31:00,
2013-02-11 16:35:00,55.5,55.2,30.04,ENE,68,2.0,-999.0,99,0.22,,,0.93,Wunderground v.1.15,2013-02-11 22:35:00,
2013-02-11 16:36:00,55.5,55.2,30.04,ENE,68,2.0,-999.0,99,0.22,,,0.93,Wunderground v.1.15,2013-02-11 22:36:00,
2013-02-11 16:39:00,55.5,55.0,30.04,NE,44,3.0,4.0,99,0.09,,,0.70,weatherlink.com 1.10,2013-02-11 22:39:00,
2013-02-11 16:40:00,55.5,55.2,30.04,ENE,68,2.0,-999.0,99,0.22,,,0.93,Wunderground v.1.15,2013-02-11 22:40:00,
2013-02-11 16:41:00,55.5,55.2,30.04,ENE,68,2.0,-999.0,99,0.22,,,0.93,Wunderground v.1.15,2013-02-11 22:41:00,
2013-02-11 16:45:00,55.6,55.3,30.03,East,90,2.0,-999.0,99,0.04,,,0.93,Wunderground v.1.15,2013-02-11 22:45:00,
2013-02-11 16:46:00,55.6,55.3,30.03,East,90,2.0,-999.0,99,0.04,,,0.93,Wunderground v.1.15,2013-02-11 22:46:00,
2013-02-11 16:50:00,55.6,55.3,30.03,East,90,2.0,-999.0,99,0.04,,,0.93,Wunderground v.1.15,2013-02-11 22:50:00,
2013-02-11 16:51:00,55.6,55.3,30.03,East,90,2.0,-999.0,99,0.04,,,0.93,Wunderground v.1.15,2013-02-11 22:51:00,
2013-02-11 16:54:00,55.6,55.0,30.03,East,91,0.0,5.0,99,0.04,,,0.71,weatherlink.com 1.10,2013-02-11 22:54:00,
2013-02-11 16:55:00,55.6,55.3,30.03,East,90,2.0,-999.0,99,0.04,,,0.93,Wunderground v.1.15,2013-02-11 22:55:00,
2013-02-11 16:56:00,55.6,55.3,30.03,East,90,2.0,-999.0,99,0.04,,,0.93,Wunderground v.1.15,2013-02-11 22:56:00,
2013-02-11 17:00:00,55.6,55.3,30.03,East,90,2.0,-999.0,99,0.04,,,0.93,Wunderground v.1.15,2013-02-11 23:00:00,
2013-02-11 17:01:00,55.6,55.3,30.03,East,90,2.0,-999.0,99,0.04,,,0.93,Wunderground v.1.15,2013-02-11 23:01:00,
2013-02-11 17:05:00,55.6,55.3,30.03,East,90,2.0,-999.0,99,0.04,,,0.93,Wunderground v.1.15,2013-02-11 23:05:00,
2013-02-11 17:06:00,55.6,55.3,30.03,East,90,2.0,-999.0,99,0.04,,,0.93,Wunderground v.1.15,2013-02-11 23:06:00,
2013-02-11 17:09:00,55.6,55.0,30.04,ESE,113,2.0,3.0,99,0.04,,,0.73,weatherlink.com 1.10,2013-02-11 23:09:00,
2013-02-11 17:10:00,55.6,55.3,30.03,East,90,2.0,-999.0,99,0.04,,,0.93,Wunderground v.1.15,2013-02-11 23:10:00,
2013-02-11 17:11:00,55.6,55.3,30.03,East,90,2.0,-999.0,99,0.04,,,0.93,Wunderground v.1.15,2013-02-11 23:11:00,
2013-02-11 17:15:00,55.7,55.4,30.02,East,90,1.0,-999.0,99,0.03,,,0.93,Wunderground v.1.15,2013-02-11 23:15:00,
2013-02-11 17:16:00,55.7,55.4,30.02,East,90,1.0,-999.0,99,0.03,,,0.93,Wunderground v.1.15,2013-02-11 23:16:00,
2013-02-11 17:20:00,55.7,55.4,30.02,East,90,1.0,-999.0,99,0.03,,,0.93,Wunderground v.1.15,2013-02-11 23:20:00,
2013-02-11 17:21:00,55.7,55.4,30.02,East,90,1.0,-999.0,99,0.03,,,0.93,Wunderground v.1.15,2013-02-11 23:21:00,
2013-02-11 17:24:00,55.7,56.0,30.03,East,101,0.0,4.0,99,0.03,,,0.73,weatherlink.com 1.10,2013-02-11 23:24:00,
2013-02-11 17:25:00,55.7,55.4,30.02,East,90,1.0,-999.0,99,0.03,,,0.93,Wunderground v.1.15,2013-02-11 23:25:00,
2013-02-11 17:26:00,55.7,55.4,30.02,East,90,1.0,-999.0,99,0.03,,,0.93,Wunderground v.1.15,2013-02-11 23:26:00,
2013-02-11 17:30:00,55.7,55.4,30.02,East,90,1.0,-999.0,99,0.03,,,0.93,Wunderground v.1.15,2013-02-11 23:30:00,
2013-02-11 17:31:00,55.7,55.4,30.02,East,90,1.0,-999.0,99,0.03,,,0.93,Wunderground v.1.15,2013-02-11 23:31:00,
2013-02-11 17:35:00,55.7,55.4,30.02,East,90,1.0,-999.0,99,0.03,,,0.93,Wunderground v.1.15,2013-02-11 23:35:00,
2013-02-11 17:36:00,55.7,55.4,30.02,East,90,1.0,-999.0,99,0.03,,,0.93,Wunderground v.1.15,2013-02-11 23:36:00,
2013-02-11 17:39:00,55.7,56.0,30.02,NE,43,4.0,5.0,99,0.03,,,0.73,weatherlink.com 1.10,2013-02-11 23:39:00,
2013-02-11 17:40:00,55.7,55.4,30.02,East,90,1.0,-999.0,99,0.03,,,0.93,Wunderground v.1.15,2013-02-11 23:40:00,
2013-02-11 17:41:00,55.7,55.4,30.02,East,90,1.0,-999.0,99,0.03,,,0.93,Wunderground v.1.15,2013-02-11 23:41:00,
2013-02-11 17:45:00,55.7,55.4,30.05,East,90,2.0,-999.0,99,0.03,,,0.93,Wunderground v.1.15,2013-02-11 23:45:00,
2013-02-11 17:46:00,55.7,55.4,30.05,East,90,2.0,-999.0,99,0.03,,,0.93,Wunderground v.1.15,2013-02-11 23:46:00,
2013-02-11 17:50:00,55.7,55.4,30.05,East,90,2.0,-999.0,99,0.03,,,0.93,Wunderground v.1.15,2013-02-11 23:50:00,
2013-02-11 17:51:00,55.7,55.4,30.05,East,90,2.0,-999.0,99,0.03,,,0.93,Wunderground v.1.15,2013-02-11 23:51:00,
2013-02-11 17:54:00,55.7,56.0,30.04,ESE,123,2.0,7.0,99,0.02,,,0.74,weatherlink.com 1.10,2013-02-11 23:54:00,
2013-02-11 17:55:00,55.7,55.4,30.05,East,90,2.0,-999.0,99,0.03,,,0.93,Wunderground v.1.15,2013-02-11 23:55:00,
2013-02-11 17:56:00,55.7,55.4,30.05,East,90,2.0,-999.0,99,0.03,,,0.93,Wunderground v.1.15,2013-02-11 23:56:00,
2013-02-11 18:00:00,55.7,55.4,30.05,East,90,2.0,-999.0,99,0.03,,,0.93,Wunderground v.1.15,2013-02-12 00:00:00,
2013-02-11 18:01:00,55.7,55.4,30.05,East,90,2.0,-999.0,99,0.03,,,0.93,Wunderground v.1.15,2013-02-12 00:01:00,
2013-02-11 18:05:00,55.7,55.4,30.05,East,90,2.0,-999.0,99,0.03,,,0.93,Wunderground v.1.15,2013-02-12 00:05:00,
2013-02-11 18:06:00,55.7,55.4,30.05,East,90,2.0,-999.0,99,0.03,,,0.93,Wunderground v.1.15,2013-02-12 00:06:00,
2013-02-11 18:09:00,55.7,56.0,30.05,North,360,3.0,6.0,99,0.03,,,0.76,weatherlink.com 1.10,2013-02-12 00:09:00,
2013-02-11 18:10:00,55.7,55.4,30.05,East,90,2.0,-999.0,99,0.03,,,0.93,Wunderground v.1.15,2013-02-12 00:10:00,
2013-02-11 18:11:00,55.7,55.4,30.05,East,90,2.0,-999.0,99,0.03,,,0.93,Wunderground v.1.15,2013-02-12 00:11:00,
2013-02-11 18:15:00,55.7,55.4,30.06,North,0,2.0,-999.0,99,0.05,,,0.93,Wunderground v.1.15,2013-02-12 00:15:00,
2013-02-11 18:16:00,55.7,55.4,30.06,North,0,2.0,-999.0,99,0.05,,,0.93,Wunderground v.1.15,2013-02-12 00:16:00,
2013-02-11 18:20:00,55.7,55.4,30.06,North,0,2.0,-999.0,99,0.05,,,0.93,Wunderground v.1.15,2013-02-12 00:20:00,
2013-02-11 18:21:00,55.7,55.4,30.06,North,0,2.0,-999.0,99,0.05,,,0.93,Wunderground v.1.15,2013-02-12 00:21:00,
2013-02-11 18:24:00,55.7,56.0,30.06,NNW,344,3.0,6.0,99,0.04,,,0.77,weatherlink.com 1.10,2013-02-12 00:24:00,
2013-02-11 18:25:00,55.7,55.4,30.06,North,0,2.0,-999.0,99,0.05,,,0.93,Wunderground v.1.15,2013-02-12 00:25:00,
2013-02-11 18:26:00,55.7,55.4,30.06,North,0,2.0,-999.0,99,0.05,,,0.93,Wunderground v.1.15,2013-02-12 00:26:00,
2013-02-11 18:30:00,55.7,55.4,30.06,North,0,2.0,-999.0,99,0.05,,,0.93,Wunderground v.1.15,2013-02-12 00:30:00,
2013-02-11 18:31:00,55.7,55.4,30.06,North,0,2.0,-999.0,99,0.05,,,0.93,Wunderground v.1.15,2013-02-12 00:31:00,
2013-02-11 18:35:00,55.7,55.4,30.06,North,0,2.0,-999.0,99,0.05,,,0.93,Wunderground v.1.15,2013-02-12 00:35:00,
2013-02-11 18:36:00,55.7,55.4,30.06,North,0,2.0,-999.0,99,0.05,,,0.93,Wunderground v.1.15,2013-02-12 00:36:00,
2013-02-11 18:39:00,55.6,55.0,30.05,NNE,20,2.0,5.0,99,0.08,,,0.81,weatherlink.com 1.10,2013-02-12 00:39:00,
2013-02-11 18:40:00,55.7,55.4,30.06,North,0,2.0,-999.0,99,0.05,,,0.93,Wunderground v.1.15,2013-02-12 00:40:00,
2013-02-11 18:41:00,55.7,55.4,30.06,North,0,2.0,-999.0,99,0.05,,,0.93,Wunderground v.1.15,2013-02-12 00:41:00,
2013-02-11 18:45:00,55.6,55.3,30.05,NNE,23,2.0,-999.0,99,0.07,,,0.93,Wunderground v.1.15,2013-02-12 00:45:00,
2013-02-11 18:46:00,55.6,55.3,30.05,NNE,23,2.0,-999.0,99,0.07,,,0.93,Wunderground v.1.15,2013-02-12 00:46:00,
2013-02-11 18:50:00,55.6,55.3,30.05,NNE,23,2.0,-999.0,99,0.07,,,0.93,Wunderground v.1.15,2013-02-12 00:50:00,
2013-02-11 18:51:00,55.6,55.3,30.05,NNE,23,2.0,-999.0,99,0.07,,,0.93,Wunderground v.1.15,2013-02-12 00:51:00,
2013-02-11 18:54:00,55.6,55.0,30.05,ENE,71,3.0,6.0,99,0.07,,,0.81,weatherlink.com 1.10,2013-02-12 00:54:00,
2013-02-11 18:55:00,55.6,55.3,30.05,NNE,23,2.0,-999.0,99,0.07,,,0.93,Wunderground v.1.15,2013-02-12 00:55:00,
2013-02-11 18:56:00,55.6,55.3,30.05,NNE,23,2.0,-999.0,99,0.07,,,0.93,Wunderground v.1.15,2013-02-12 00:56:00,
2013-02-11 19:00:00,55.6,55.3,30.05,NNE,23,2.0,-999.0,99,0.07,,,0.93,Wunderground v.1.15,2013-02-12 01:00:00,
2013-02-11 19:01:00,55.6,55.3,30.05,NNE,23,2.0,-999.0,99,0.07,,,0.93,Wunderground v.1.15,2013-02-12 01:01:00,
2013-02-11 19:06:00,55.6,55.3,30.05,NNE,23,2.0,-999.0,99,0.07,,,0.93,Wunderground v.1.15,2013-02-12 01:06:00,
2013-02-11 19:09:00,55.5,55.0,30.05,NE,48,2.0,7.0,99,0.06,,,0.82,weatherlink.com 1.10,2013-02-12 01:09:00,
2013-02-11 19:11:00,55.6,55.3,30.05,NNE,23,2.0,-999.0,99,0.07,,,0.93,Wunderground v.1.15,2013-02-12 01:11:00,
2013-02-11 19:16:00,55.5,55.2,30.05,NE,45,2.0,-999.0,99,0.05,,,0.93,Wunderground v.1.15,2013-02-12 01:16:00,
2013-02-11 19:21:00,55.5,55.2,30.05,NE,45,2.0,-999.0,99,0.05,,,0.93,Wunderground v.1.15,2013-02-12 01:21:00,
2013-02-11 19:24:00,55.5,55.0,30.05,NE,42,3.0,5.0,99,0.06,,,0.83,weatherlink.com 1.10,2013-02-12 01:24:00,
2013-02-11 19:26:00,55.5,55.2,30.05,NE,45,2.0,-999.0,99,0.05,,,0.93,Wunderground v.1.15,2013-02-12 01:26:00,
2013-02-11 19:31:00,55.5,55.2,30.05,NE,45,2.0,-999.0,99,0.05,,,0.93,Wunderground v.1.15,2013-02-12 01:31:00,
2013-02-11 19:36:00,55.5,55.2,30.05,NE,45,2.0,-999.0,99,0.05,,,0.93,Wunderground v.1.15,2013-02-12 01:36:00,
2013-02-11 19:39:00,55.4,55.0,30.05,NE,49,3.0,6.0,99,0.02,,,0.83,weatherlink.com 1.10,2013-02-12 01:39:00,
2013-02-11 19:41:00,55.5,55.2,30.05,NE,45,2.0,-999.0,99,0.05,,,0.93,Wunderground v.1.15,2013-02-12 01:41:00,
2013-02-11 19:46:00,55.4,55.1,30.04,ENE,68,3.0,-999.0,99,0.01,,,0.93,Wunderground v.1.15,2013-02-12 01:46:00,
2013-02-11 19:51:00,55.4,55.1,30.04,ENE,68,3.0,-999.0,99,0.01,,,0.93,Wunderground v.1.15,2013-02-12 01:51:00,
2013-02-11 19:54:00,55.4,55.0,30.04,ENE,64,1.0,7.0,99,0.02,,,0.83,weatherlink.com 1.10,2013-02-12 01:54:00,
2013-02-11 19:56:00,55.4,55.1,30.04,ENE,68,3.0,-999.0,99,0.01,,,0.93,Wunderground v.1.15,2013-02-12 01:56:00,
2013-02-11 20:01:00,55.4,55.1,30.04,ENE,68,3.0,-999.0,99,0.01,,,0.93,Wunderground v.1.15,2013-02-12 02:01:00,
2013-02-11 20:06:00,55.4,55.1,30.04,ENE,68,3.0,-999.0,99,0.01,,,0.93,Wunderground v.1.15,2013-02-12 02:06:00,
2013-02-11 20:09:00,55.4,55.0,30.03,ENE,69,1.0,9.0,99,0.00,,,0.83,weatherlink.com 1.10,2013-02-12 02:09:00,
2013-02-11 20:11:00,55.4,55.1,30.04,ENE,68,3.0,-999.0,99,0.01,,,0.93,Wunderground v.1.15,2013-02-12 02:11:00,
2013-02-11 20:16:00,55.3,55.0,30.07,NE,45,4.0,-999.0,99,0.01,,,0.93,Wunderground v.1.15,2013-02-12 02:16:00,
2013-02-11 20:21:00,55.3,55.0,30.07,NE,45,4.0,-999.0,99,0.01,,,0.93,Wunderground v.1.15,2013-02-12 02:21:00,
2013-02-11 20:24:00,55.3,55.0,30.04,NE,35,2.0,9.0,99,0.01,,,0.84,weatherlink.com 1.10,2013-02-12 02:24:00,
2013-02-11 20:26:00,55.3,55.0,30.07,NE,45,4.0,-999.0,99,0.01,,,0.93,Wunderground v.1.15,2013-02-12 02:26:00,
2013-02-11 20:31:00,55.3,55.0,30.07,NE,45,4.0,-999.0,99,0.01,,,0.93,Wunderground v.1.15,2013-02-12 02:31:00,
2013-02-11 20:36:00,55.3,55.0,30.07,NE,45,4.0,-999.0,99,0.01,,,0.93,Wunderground v.1.15,2013-02-12 02:36:00,
2013-02-11 20:39:00,55.4,55.0,30.07,NNE,13,7.0,10.0,99,0.01,,,0.84,weatherlink.com 1.10,2013-02-12 02:39:00,
2013-02-11 20:41:00,55.3,55.0,30.07,NE,45,4.0,-999.0,99,0.01,,,0.93,Wunderground v.1.15,2013-02-12 02:41:00,
2013-02-11 20:46:00,55.2,54.9,30.05,NE,45,4.0,-999.0,99,0.02,,,0.93,Wunderground v.1.15,2013-02-12 02:46:00,
2013-02-11 20:51:00,55.2,54.9,30.05,NE,45,4.0,-999.0,99,0.02,,,0.93,Wunderground v.1.15,2013-02-12 02:51:00,
2013-02-11 20:55:00,55.3,55.0,30.06,East,87,3.0,7.0,99,0.01,,,0.84,weatherlink.com 1.10,2013-02-12 02:55:00,
2013-02-11 20:56:00,55.2,54.9,30.05,NE,45,4.0,-999.0,99,0.02,,,0.93,Wunderground v.1.15,2013-02-12 02:56:00,
2013-02-11 21:01:00,55.2,54.9,30.05,NE,45,4.0,-999.0,99,0.02,,,0.93,Wunderground v.1.15,2013-02-12 03:01:00,
2013-02-11 21:06:00,55.2,54.9,30.05,NE,45,4.0,-999.0,99,0.02,,,0.93,Wunderground v.1.15,2013-02-12 03:06:00,
2013-02-11 21:09:00,55.1,55.0,30.04,NNE,27,4.0,8.0,99,0.02,,,0.85,weatherlink.com 1.10,2013-02-12 03:09:00,
2013-02-11 21:11:00,55.2,54.9,30.05,NE,45,4.0,-999.0,99,0.02,,,0.93,Wunderground v.1.15,2013-02-12 03:11:00,
2013-02-11 21:16:00,55.1,54.8,30.05,NE,45,4.0,-999.0,99,0.02,,,0.93,Wunderground v.1.15,2013-02-12 03:16:00,
2013-02-11 21:21:00,55.1,54.8,30.05,NE,45,4.0,-999.0,99,0.02,,,0.93,Wunderground v.1.15,2013-02-12 03:21:00,
2013-02-11 21:25:00,55.1,55.0,30.05,ENE,71,11.0,12.0,99,0.02,,,0.86,weatherlink.com 1.10,2013-02-12 03:25:00,
2013-02-11 21:26:00,55.1,54.8,30.05,NE,45,4.0,-999.0,99,0.02,,,0.93,Wunderground v.1.15,2013-02-12 03:26:00,
2013-02-11 21:31:00,55.1,54.8,30.05,NE,45,4.0,-999.0,99,0.02,,,0.93,Wunderground v.1.15,2013-02-12 03:31:00,
2013-02-11 21:36:00,55.1,54.8,30.05,NE,45,4.0,-999.0,99,0.02,,,0.93,Wunderground v.1.15,2013-02-12 03:36:00,
2013-02-11 21:39:00,55.1,55.0,30.05,NE,37,1.0,11.0,99,0.02,,,0.86,weatherlink.com 1.10,2013-02-12 03:39:00,
2013-02-11 21:41:00,55.1,54.8,30.05,NE,45,4.0,-999.0,99,0.02,,,0.93,Wunderground v.1.15,2013-02-12 03:41:00,
2013-02-11 21:46:00,55.1,54.8,30.03,ENE,68,4.0,-999.0,99,0.01,,,0.93,Wunderground v.1.15,2013-02-12 03:46:00,
2013-02-11 21:51:00,55.1,54.8,30.03,ENE,68,4.0,-999.0,99,0.01,,,0.93,Wunderground v.1.15,2013-02-12 03:51:00,
2013-02-11 21:54:00,55.1,55.0,30.03,East,101,2.0,11.0,99,0.02,,,0.86,weatherlink.com 1.10,2013-02-12 03:54:00,
2013-02-11 21:56:00,55.1,54.8,30.03,ENE,68,4.0,-999.0,99,0.01,,,0.93,Wunderground v.1.15,2013-02-12 03:56:00,
2013-02-11 22:01:00,55.1,54.8,30.03,ENE,68,4.0,-999.0,99,0.01,,,0.93,Wunderground v.1.15,2013-02-12 04:01:00,
2013-02-11 22:06:00,55.1,54.8,30.03,ENE,68,4.0,-999.0,99,0.01,,,0.93,Wunderground v.1.15,2013-02-12 04:06:00,
2013-02-11 22:09:00,55.1,55.0,30.03,ENE,62,5.0,13.0,99,0.01,,,0.86,weatherlink.com 1.10,2013-02-12 04:09:00,
2013-02-11 22:11:00,55.1,54.8,30.03,ENE,68,4.0,-999.0,99,0.01,,,0.93,Wunderground v.1.15,2013-02-12 04:11:00,
2013-02-11 22:16:00,55.1,54.5,30.02,NE,45,5.0,-999.0,98,0.00,,,0.93,Wunderground v.1.15,2013-02-12 04:16:00,
2013-02-11 22:21:00,55.1,54.5,30.02,NE,45,5.0,-999.0,98,0.00,,,0.93,Wunderground v.1.15,2013-02-12 04:21:00,
2013-02-11 22:24:00,55.1,55.0,30.02,ENE,57,4.0,12.0,99,0.00,,,0.86,weatherlink.com 1.10,2013-02-12 04:24:00,
2013-02-11 22:26:00,55.1,54.5,30.02,NE,45,5.0,-999.0,98,0.00,,,0.93,Wunderground v.1.15,2013-02-12 04:26:00,
2013-02-11 22:31:00,55.1,54.5,30.02,NE,45,5.0,-999.0,98,0.00,,,0.93,Wunderground v.1.15,2013-02-12 04:31:00,
2013-02-11 22:36:00,55.1,54.5,30.02,NE,45,5.0,-999.0,98,0.00,,,0.93,Wunderground v.1.15,2013-02-12 04:36:00,
2013-02-11 22:40:00,55.1,55.0,30.02,NNE,27,5.0,9.0,98,0.00,,,0.86,weatherlink.com 1.10,2013-02-12 04:40:00,
2013-02-11 22:41:00,55.1,54.5,30.02,NE,45,5.0,-999.0,98,0.00,,,0.93,Wunderground v.1.15,2013-02-12 04:41:00,
2013-02-11 22:46:00,55.1,54.5,30.01,NE,45,4.0,-999.0,98,0.00,,,0.93,Wunderground v.1.15,2013-02-12 04:46:00,
2013-02-11 22:51:00,55.1,54.5,30.01,NE,45,4.0,-999.0,98,0.00,,,0.93,Wunderground v.1.15,2013-02-12 04:51:00,
2013-02-11 22:55:00,55.1,55.0,30.01,NE,55,6.0,12.0,98,0.00,,,0.86,weatherlink.com 1.10,2013-02-12 04:55:00,
2013-02-11 22:56:00,55.1,54.5,30.01,NE,45,4.0,-999.0,98,0.00,,,0.93,Wunderground v.1.15,2013-02-12 04:56:00,
2013-02-11 23:01:00,55.1,54.5,30.01,NE,45,4.0,-999.0,98,0.00,,,0.93,Wunderground v.1.15,2013-02-12 05:01:00,
2013-02-11 23:06:00,55.1,54.5,30.01,NE,45,4.0,-999.0,98,0.00,,,0.93,Wunderground v.1.15,2013-02-12 05:06:00,
2013-02-11 23:09:00,55.2,55.0,30.03,ESE,111,3.0,8.0,98,0.01,,,0.87,weatherlink.com 1.10,2013-02-12 05:09:00,
2013-02-11 23:11:00,55.1,54.5,30.01,NE,45,4.0,-999.0,98,0.00,,,0.93,Wunderground v.1.15,2013-02-12 05:11:00,
2013-02-11 23:16:00,55.2,54.6,30.05,NE,45,4.0,-999.0,98,0.01,,,0.93,Wunderground v.1.15,2013-02-12 05:16:00,
2013-02-11 23:21:00,55.2,54.6,30.05,NE,45,4.0,-999.0,98,0.01,,,0.93,Wunderground v.1.15,2013-02-12 05:21:00,
2013-02-11 23:24:00,55.2,55.0,30.03,ENE,63,5.0,9.0,98,0.01,,,0.87,weatherlink.com 1.10,2013-02-12 05:24:00,
2013-02-11 23:26:00,55.2,54.6,30.05,NE,45,4.0,-999.0,98,0.01,,,0.93,Wunderground v.1.15,2013-02-12 05:26:00,
2013-02-11 23:31:00,55.2,54.6,30.05,NE,45,4.0,-999.0,98,0.01,,,0.93,Wunderground v.1.15,2013-02-12 05:31:00,
2013-02-11 23:36:00,55.2,54.6,30.05,NE,45,4.0,-999.0,98,0.01,,,0.93,Wunderground v.1.15,2013-02-12 05:36:00,
2013-02-11 23:39:00,55.2,55.0,30.01,ENE,71,5.0,10.0,98,0.02,,,0.88,weatherlink.com 1.10,2013-02-12 05:39:00,
2013-02-11 23:41:00,55.2,54.6,30.05,NE,45,4.0,-999.0,98,0.01,,,0.93,Wunderground v.1.15,2013-02-12 05:41:00,
2013-02-11 23:46:00,55.1,54.5,30.03,NE,45,5.0,-999.0,98,0.07,,,0.93,Wunderground v.1.15,2013-02-12 05:46:00,
2013-02-11 23:51:00,55.1,54.5,30.03,NE,45,5.0,-999.0,98,0.07,,,0.93,Wunderground v.1.15,2013-02-12 05:51:00,
2013-02-11 23:54:00,55.1,55.0,30.06,NW,325,3.0,11.0,98,0.04,,,0.90,weatherlink.com 1.10,2013-02-12 05:54:00,
2013-02-11 23:56:00,55.1,54.5,30.03,NE,45,5.0,-999.0,98,0.07,,,0.93,Wunderground v.1.15,2013-02-12 05:56:00,